createdAt,value
2019-03-12T00:03:37.183Z,95.80
2019-03-12T00:07:39.150Z,95.70
2019-03-12T00:11:41.066Z,95.40
2019-03-12T00:15:43.046Z,95.40
2019-03-12T00:19:44.949Z,95.30
2019-03-12T00:23:46.843Z,95.50
2019-03-12T00:27:48.807Z,95.20
2019-03-12T00:31:51.678Z,95.20
2019-03-12T00:35:53.583Z,95.00
2019-03-12T00:39:55.487Z,95.20
2019-03-12T00:43:57.395Z,95.00
2019-03-12T00:47:59.271Z,95.00
2019-03-12T00:52:01.699Z,94.90
2019-03-12T00:56:03.600Z,94.70
2019-03-12T01:00:18.400Z,95.20
2019-03-12T01:04:20.297Z,95.20
2019-03-12T01:08:22.197Z,95.20
2019-03-12T01:12:24.081Z,95.40
2019-03-12T01:16:25.987Z,95.40
2019-03-12T01:20:27.887Z,95.30
2019-03-12T01:24:29.785Z,95.20
2019-03-12T01:28:31.748Z,95.20
2019-03-12T01:32:33.721Z,95.00
2019-03-12T01:36:35.615Z,95.20
2019-03-12T01:40:37.514Z,95.00
2019-03-12T01:44:39.415Z,94.80
2019-03-12T01:48:41.313Z,94.70
2019-03-12T01:52:43.277Z,94.50
2019-03-12T01:56:45.263Z,94.30
2019-03-12T02:00:47.165Z,94.40
2019-03-12T02:04:49.069Z,93.90
2019-03-12T02:08:51.009Z,94.10
2019-03-12T02:12:52.900Z,94.10
2019-03-12T02:16:54.871Z,94.40
2019-03-12T02:20:56.780Z,94.10
2019-03-12T02:24:58.679Z,94.30
2019-03-12T02:29:00.631Z,93.80
2019-03-12T02:33:02.549Z,94.10
2019-03-12T02:37:05.513Z,93.80
2019-03-12T02:41:07.415Z,93.50
2019-03-12T02:45:16.931Z,94.00
2019-03-12T02:49:19.077Z,94.00
2019-03-12T02:53:20.972Z,93.80
2019-03-12T02:57:22.885Z,93.70
2019-03-12T03:01:24.795Z,93.80
2019-03-12T03:05:26.825Z,94.30
2019-03-12T03:09:28.715Z,94.50
2019-03-12T03:13:31.906Z,94.50
2019-03-12T03:17:33.832Z,94.80
2019-03-12T03:21:35.719Z,94.60
2019-03-12T03:25:37.624Z,94.80
2019-03-12T03:29:39.572Z,94.90
2019-03-12T03:33:41.497Z,94.70
2019-03-12T03:37:43.361Z,94.80
2019-03-12T03:41:45.257Z,94.80
2019-03-12T03:45:47.152Z,95.00
2019-03-12T03:49:49.054Z,94.70
2019-03-12T03:53:50.993Z,94.70
2019-03-12T03:57:52.885Z,94.70
2019-03-12T04:01:54.793Z,94.60
2019-03-12T04:05:56.706Z,94.70
2019-03-12T04:09:58.610Z,94.70
2019-03-12T04:14:00.509Z,94.70
2019-03-12T04:18:02.415Z,94.60
2019-03-12T04:22:04.455Z,94.80
2019-03-12T04:26:06.356Z,94.70
2019-03-12T04:30:16.957Z,94.60
2019-03-12T04:34:18.922Z,94.60
2019-03-12T04:38:20.819Z,94.80
2019-03-12T04:42:22.723Z,94.90
2019-03-12T04:46:24.638Z,94.90
2019-03-12T04:50:26.533Z,94.90
2019-03-12T04:54:28.481Z,94.80
2019-03-12T04:58:30.385Z,94.70
2019-03-12T05:02:32.294Z,94.50
2019-03-12T05:06:34.210Z,95.20
2019-03-12T05:10:37.100Z,94.90
2019-03-12T05:14:39.189Z,94.70
2019-03-12T05:18:41.274Z,94.70
2019-03-12T05:22:43.164Z,94.80
2019-03-12T05:26:45.074Z,94.80
2019-03-12T05:30:46.972Z,94.90
2019-03-12T05:34:49.161Z,94.50
2019-03-12T05:38:51.065Z,94.40
2019-03-12T05:42:52.971Z,94.50
2019-03-12T05:46:54.880Z,94.20
2019-03-12T05:50:56.820Z,94.10
2019-03-12T05:54:58.824Z,94.40
2019-03-12T05:59:00.732Z,94.40
2019-03-12T06:03:02.639Z,94.30
2019-03-12T06:07:18.875Z,94.50
2019-03-12T06:11:20.773Z,94.20
2019-03-12T06:15:22.692Z,94.30
2019-03-12T06:19:24.601Z,94.10
2019-03-12T06:23:26.514Z,94.00
2019-03-12T06:27:28.417Z,94.10
2019-03-12T06:31:34.963Z,94.50
2019-03-12T06:35:54.777Z,93.70
2019-03-12T06:40:01.544Z,93.60
2019-03-12T06:44:05.090Z,93.50
2019-03-12T06:48:14.375Z,93.40
2019-03-12T06:52:28.257Z,93.50
2019-03-12T06:56:29.932Z,93.30
2019-03-12T07:00:45.080Z,93.30
2019-03-12T07:04:51.541Z,93.40
2019-03-12T07:08:57.837Z,93.30
2019-03-12T07:13:01.468Z,93.30
2019-03-12T07:17:07.957Z,93.40
2019-03-12T07:21:11.480Z,92.60
2019-03-12T07:25:20.255Z,93.30
2019-03-12T07:29:41.926Z,93.40
2019-03-12T07:33:45.466Z,93.10
2019-03-12T07:37:57.835Z,93.40
2019-03-12T07:41:59.464Z,93.10
2019-03-12T07:46:15.132Z,92.20
2019-03-12T07:50:24.398Z,92.70
2019-03-12T07:54:30.365Z,92.50
2019-03-12T07:58:40.117Z,92.40
2019-03-12T08:02:55.630Z,92.20
2019-03-12T08:07:04.700Z,92.50
2019-03-12T08:11:08.242Z,91.30
2019-03-12T08:15:30.787Z,89.70
2019-03-12T08:19:37.015Z,87.70
2019-03-12T08:23:49.309Z,88.90
2019-03-12T08:27:59.653Z,88.50
2019-03-12T08:32:06.048Z,89.10
2019-03-12T08:36:07.723Z,86.10
2019-03-12T08:40:10.338Z,82.00
2019-03-12T08:44:30.024Z,75.00
2019-03-12T08:48:33.674Z,76.80
2019-03-12T08:52:39.666Z,77.10
2019-03-12T08:56:43.216Z,75.70
2019-03-12T09:00:52.952Z,73.40
2019-03-12T09:05:12.810Z,76.00
2019-03-12T09:09:19.137Z,73.90
2019-03-12T09:13:20.804Z,73.60
2019-03-12T09:17:27.059Z,74.90
2019-03-12T09:21:34.454Z,73.20
2019-03-12T09:25:37.991Z,74.00
2019-03-12T09:29:39.671Z,73.00
2019-03-12T09:33:59.460Z,72.30
2019-03-12T09:38:06.067Z,71.10
2019-03-12T09:42:18.859Z,72.30
2019-03-12T09:46:25.196Z,71.70
2019-03-12T09:50:28.742Z,73.50
2019-03-12T09:54:39.313Z,69.50
2019-03-12T09:58:48.595Z,69.50
2019-03-12T10:02:52.151Z,68.90
2019-03-12T10:07:01.589Z,69.40
2019-03-12T10:11:07.713Z,69.00
2019-03-12T10:15:27.178Z,67.90
2019-03-12T10:19:42.603Z,70.00
2019-03-12T10:23:52.103Z,66.70
2019-03-12T10:27:56.705Z,65.50
2019-03-12T10:32:00.263Z,65.70
2019-03-12T10:36:20.264Z,64.20
2019-03-12T10:40:35.875Z,64.90
2019-03-12T10:44:39.423Z,64.50
2019-03-12T10:48:41.500Z,61.80
2019-03-12T10:52:43.419Z,60.00
2019-03-12T10:56:45.313Z,59.90
2019-03-12T11:00:47.285Z,59.20
2019-03-12T11:04:49.193Z,58.70
2019-03-12T11:08:51.099Z,57.90
2019-03-12T11:12:53.000Z,58.60
2019-03-12T11:16:54.919Z,58.20
2019-03-12T11:20:58.715Z,57.40
2019-03-12T11:25:00.406Z,56.10
2019-03-12T11:29:02.304Z,56.00
2019-03-12T11:33:04.260Z,56.50
2019-03-12T11:37:06.182Z,56.10
2019-03-12T11:41:08.149Z,54.00
2019-03-12T11:45:17.075Z,53.60
2019-03-12T11:49:16.483Z,54.00
2019-03-12T11:53:18.369Z,53.70
2019-03-12T11:57:20.344Z,53.60
2019-03-12T12:01:22.344Z,52.60
2019-03-12T12:05:24.229Z,53.80
2019-03-12T12:09:26.129Z,52.20
2019-03-12T12:13:28.044Z,50.60
2019-03-12T12:17:29.942Z,49.30
2019-03-12T12:21:32.218Z,49.30
2019-03-12T12:25:34.200Z,48.90
2019-03-12T12:29:36.114Z,49.60
2019-03-12T12:33:37.995Z,49.70
2019-03-12T12:37:40.033Z,51.00
2019-03-12T12:41:41.936Z,48.70
2019-03-12T12:45:44.998Z,48.10
2019-03-12T12:49:46.948Z,46.40
2019-03-12T12:53:48.842Z,46.60
2019-03-12T12:57:50.744Z,47.00
2019-03-12T13:01:52.652Z,46.00
2019-03-12T13:05:55.781Z,46.10
2019-03-12T13:09:57.839Z,44.10
2019-03-12T13:13:59.744Z,44.00
2019-03-12T13:18:01.666Z,42.80
2019-03-12T13:22:03.599Z,45.20
2019-03-12T13:26:05.498Z,44.90
2019-03-12T13:30:16.954Z,45.10
2019-03-12T13:34:18.849Z,45.40
2019-03-12T13:38:20.765Z,42.60
2019-03-12T13:42:22.848Z,41.60
2019-03-12T13:46:24.757Z,40.80
2019-03-12T13:50:27.126Z,40.50
2019-03-12T13:54:29.978Z,41.40
2019-03-12T13:58:32.292Z,39.20
2019-03-12T14:02:34.214Z,40.60
2019-03-12T14:06:37.591Z,39.90
2019-03-12T14:10:39.732Z,38.90
2019-03-12T14:14:41.912Z,38.70
2019-03-12T14:18:43.829Z,39.80
2019-03-12T14:22:45.748Z,39.10
2019-03-12T14:26:47.665Z,38.50
2019-03-12T14:30:49.719Z,39.00
2019-03-12T14:34:51.622Z,40.30
2019-03-12T14:38:53.616Z,40.90
2019-03-12T14:42:55.524Z,40.10
2019-03-12T14:46:57.441Z,38.30
2019-03-12T14:50:59.350Z,36.70
2019-03-12T14:55:01.259Z,37.90
2019-03-12T14:59:03.710Z,39.90
2019-03-12T15:03:05.775Z,39.90
2019-03-12T15:07:07.711Z,40.90
2019-03-12T15:11:09.603Z,40.90
2019-03-12T15:15:13.513Z,42.20
2019-03-12T15:19:15.669Z,42.70
2019-03-12T15:23:17.935Z,41.80
2019-03-12T15:27:19.835Z,42.30
2019-03-12T15:31:21.736Z,41.00
2019-03-12T15:35:23.633Z,41.30
2019-03-12T15:39:25.524Z,44.00
2019-03-12T15:43:27.431Z,42.60
2019-03-12T15:47:29.339Z,42.30
2019-03-12T15:51:32.481Z,43.90
2019-03-12T15:55:34.365Z,43.70
2019-03-12T15:59:36.283Z,44.70
2019-03-12T16:03:38.197Z,45.20
2019-03-12T16:07:40.111Z,46.50
2019-03-12T16:11:42.016Z,45.60
2019-03-12T16:15:43.903Z,46.20
2019-03-12T16:19:45.839Z,47.40
2019-03-12T16:23:47.699Z,49.40
2019-03-12T16:27:49.598Z,48.70
2019-03-12T16:31:52.685Z,50.40
2019-03-12T16:35:54.570Z,50.90
2019-03-12T16:39:56.789Z,51.90
2019-03-12T16:43:59.651Z,51.60
2019-03-12T16:48:01.758Z,53.00
2019-03-12T16:52:04.611Z,53.20
2019-03-12T16:56:06.583Z,55.20
2019-03-12T17:00:15.285Z,55.10
2019-03-12T17:04:17.195Z,56.00
2019-03-12T17:08:19.178Z,55.40
2019-03-12T17:12:21.073Z,54.80
2019-03-12T17:16:22.956Z,56.80
2019-03-12T17:20:25.135Z,57.10
2019-03-12T17:24:27.011Z,56.90
2019-03-12T17:28:28.932Z,58.00
2019-03-12T17:32:30.842Z,56.30
2019-03-12T17:36:32.727Z,55.70
2019-03-12T17:40:34.633Z,56.70
2019-03-12T17:44:36.531Z,59.00
2019-03-12T17:48:38.434Z,59.50
2019-03-12T17:52:40.344Z,60.20
2019-03-12T17:56:42.229Z,59.40
2019-03-12T18:00:45.416Z,61.90
2019-03-12T18:04:47.317Z,63.90
2019-03-12T18:08:49.219Z,63.70
2019-03-12T18:12:51.112Z,64.20
2019-03-12T18:16:53.010Z,66.20
2019-03-12T18:20:54.982Z,62.90
2019-03-12T18:24:56.882Z,62.60
2019-03-12T18:28:59.401Z,65.70
2019-03-12T18:33:01.356Z,66.70
2019-03-12T18:37:10.578Z,60.20
2019-03-12T18:41:15.236Z,60.30
2019-03-12T18:45:23.413Z,60.90
2019-03-12T18:49:25.305Z,59.60
2019-03-12T18:53:27.207Z,58.90
2019-03-12T18:57:29.112Z,59.40
2019-03-12T19:01:32.481Z,57.40
2019-03-12T19:05:34.398Z,57.20
2019-03-12T19:09:36.304Z,57.10
2019-03-12T19:13:38.283Z,56.40
2019-03-12T19:17:41.209Z,55.50
2019-03-12T19:21:43.193Z,55.00
2019-03-12T19:25:48.247Z,54.50
2019-03-12T19:29:50.152Z,54.30
2019-03-12T19:33:53.428Z,54.80
2019-03-12T19:37:57.415Z,55.40
2019-03-12T19:41:59.326Z,54.80
2019-03-12T19:46:01.209Z,55.00
2019-03-12T19:50:06.165Z,54.80
2019-03-12T19:54:08.057Z,55.00
2019-03-12T19:58:10.248Z,56.80
2019-03-12T20:02:16.434Z,55.20
2019-03-12T20:06:15.729Z,56.80
2019-03-12T20:10:57.395Z,56.90
2019-03-12T20:15:21.318Z,58.00
2019-03-12T20:19:56.593Z,57.40
2019-03-12T20:24:55.227Z,57.90
2019-03-12T20:29:21.438Z,57.90
2019-03-12T20:33:39.702Z,59.10
2019-03-12T20:38:25.682Z,59.20
2019-03-12T20:42:57.764Z,59.40
2019-03-12T20:47:38.708Z,59.70
2019-03-12T20:52:18.822Z,59.30
2019-03-12T20:56:51.921Z,59.60
2019-03-12T21:01:23.184Z,59.30
2019-03-12T21:06:16.677Z,60.00
2019-03-12T21:11:00.688Z,60.20
2019-03-12T21:15:34.248Z,62.50
2019-03-12T21:20:13.681Z,60.40
2019-03-12T21:24:42.430Z,61.10
2019-03-12T21:29:23.362Z,59.80
2019-03-12T21:33:25.260Z,60.40
2019-03-12T21:37:27.160Z,59.50
2019-03-12T21:41:29.116Z,59.20
2019-03-12T21:45:31.008Z,59.20
2019-03-12T21:49:33.256Z,60.50
2019-03-12T21:53:35.148Z,57.80
2019-03-12T21:57:37.063Z,57.80
2019-03-12T22:01:38.958Z,58.30
2019-03-12T22:05:40.958Z,59.90
2019-03-12T22:09:42.861Z,58.00
2019-03-12T22:13:44.767Z,57.50
2019-03-12T22:17:47.501Z,57.70
2019-03-12T22:21:54.070Z,57.50
2019-03-12T22:25:56.198Z,58.60
2019-03-12T22:29:58.044Z,58.60
2019-03-12T22:33:59.943Z,59.10
2019-03-12T22:38:01.865Z,59.60
2019-03-12T22:42:03.933Z,60.20
2019-03-12T22:46:05.889Z,60.50
2019-03-12T22:50:18.274Z,58.80
2019-03-12T22:58:47.241Z,60.20
2019-03-12T23:03:07.418Z,61.20
2019-03-12T23:07:27.068Z,61.70
2019-03-12T23:11:30.564Z,64.50
2019-03-12T23:15:32.871Z,63.70
2019-03-12T23:19:34.846Z,66.70
2019-03-12T23:23:36.753Z,66.20
2019-03-12T23:27:38.648Z,66.20
2019-03-12T23:31:40.634Z,66.90
2019-03-12T23:35:42.537Z,67.30
2019-03-12T23:39:44.473Z,67.50
2019-03-12T23:43:46.424Z,68.30
2019-03-12T23:47:50.334Z,71.00
2019-03-12T23:51:51.996Z,71.00
2019-03-12T23:55:54.125Z,68.00
2019-03-12T23:59:56.143Z,70.80
